createdAt,value
2017-10-13T07:51:20.776Z,1013.01
2017-10-13T07:52:22.197Z,1013.07
2017-10-13T07:53:23.622Z,1013.03
2017-10-13T07:54:25.044Z,1013.04
2017-10-13T07:55:26.500Z,1013.09
2017-10-13T07:56:27.917Z,1013.08
2017-10-13T07:57:29.352Z,1013.10
2017-10-13T07:58:30.775Z,1013.15
2017-10-13T07:59:32.197Z,1013.13
2017-10-13T08:00:33.615Z,1013.13
2017-10-13T08:01:35.036Z,1013.14
2017-10-13T08:02:36.462Z,1013.14
2017-10-13T08:03:37.882Z,1013.19
2017-10-13T08:04:39.297Z,1013.18
2017-10-13T08:05:40.720Z,1013.13
2017-10-13T08:06:42.147Z,1013.23
2017-10-13T08:07:43.573Z,1013.19
2017-10-13T08:08:45.005Z,1013.16
2017-10-13T08:09:46.437Z,1013.20
2017-10-13T08:10:47.861Z,1013.17
2017-10-13T08:11:49.292Z,1013.19
2017-10-13T08:12:50.718Z,1013.21
2017-10-13T08:13:52.139Z,1013.15
2017-10-13T08:14:53.568Z,1013.20
2017-10-13T08:15:54.995Z,1013.17
2017-10-13T08:16:56.424Z,1013.17
2017-10-13T08:17:57.848Z,1013.18
2017-10-13T08:18:59.264Z,1013.21
2017-10-13T08:20:00.686Z,1013.21
2017-10-13T08:21:02.111Z,1013.17
2017-10-13T08:22:03.528Z,1013.12
2017-10-13T08:23:04.951Z,1013.17
2017-10-13T08:24:06.378Z,1013.16
2017-10-13T08:25:07.795Z,1013.15
2017-10-13T08:26:09.224Z,1013.16
2017-10-13T08:27:10.644Z,1013.16
2017-10-13T08:28:12.160Z,1013.17
2017-10-13T08:29:13.589Z,1013.16
2017-10-13T08:30:15.018Z,1013.18
2017-10-13T08:31:16.450Z,1013.17
2017-10-13T08:32:17.879Z,1013.27
2017-10-13T08:33:19.344Z,1013.23
2017-10-13T08:34:20.776Z,1013.23
2017-10-13T08:35:22.309Z,1013.31
2017-10-13T08:36:23.732Z,1013.30
2017-10-13T08:37:25.153Z,1013.33
2017-10-13T08:38:26.575Z,1013.29
2017-10-13T08:39:27.994Z,1013.30
2017-10-13T08:40:29.428Z,1013.30
2017-10-13T08:41:30.853Z,1013.29
2017-10-13T08:42:32.273Z,1013.25
2017-10-13T08:43:33.701Z,1013.26
2017-10-13T08:44:35.128Z,1013.24
2017-10-13T08:45:36.564Z,1013.23
2017-10-13T08:46:37.995Z,1013.25
2017-10-13T08:47:39.433Z,1013.24
2017-10-13T08:48:40.855Z,1013.28
2017-10-13T08:49:42.281Z,1013.28
2017-10-13T08:50:43.717Z,1013.32
2017-10-13T08:51:45.153Z,1013.29
2017-10-13T08:52:46.581Z,1013.28
2017-10-13T08:53:48.323Z,1013.31
2017-10-13T08:54:49.745Z,1013.27
2017-10-13T08:55:51.791Z,1013.31
2017-10-13T08:56:53.226Z,1013.32
2017-10-13T08:57:54.660Z,1013.27
2017-10-13T08:58:56.079Z,1013.32
2017-10-13T08:59:57.510Z,1013.23
2017-10-13T09:00:58.930Z,1013.29
2017-10-13T09:02:00.356Z,1013.26
2017-10-13T09:03:01.784Z,1013.28
2017-10-13T09:04:03.219Z,1013.28
2017-10-13T09:05:04.646Z,1013.27
2017-10-13T09:06:06.087Z,1013.23
2017-10-13T09:07:07.505Z,1013.30
2017-10-13T09:08:08.937Z,1013.25
2017-10-13T09:09:10.359Z,1013.27
2017-10-13T09:10:11.792Z,1013.19
2017-10-13T09:11:13.213Z,1013.18
2017-10-13T09:12:14.644Z,1013.13
2017-10-13T09:13:16.071Z,1013.14
2017-10-13T09:14:17.499Z,1013.24
2017-10-13T09:15:18.916Z,1013.23
2017-10-13T09:16:20.341Z,1013.23
2017-10-13T09:17:21.768Z,1013.24
2017-10-13T09:18:23.188Z,1013.27
2017-10-13T09:19:24.609Z,1013.33
2017-10-13T09:20:26.025Z,1013.32
2017-10-13T09:21:27.452Z,1013.32
2017-10-13T09:22:28.870Z,1013.38
2017-10-13T09:23:30.289Z,1013.35
2017-10-13T09:24:31.708Z,1013.31
2017-10-13T09:25:33.136Z,1013.33
2017-10-13T09:26:34.555Z,1013.35
2017-10-13T09:27:35.983Z,1013.29
2017-10-13T09:28:37.402Z,1013.30
2017-10-13T09:29:38.827Z,1013.30
2017-10-13T09:30:40.246Z,1013.29
2017-10-13T09:31:41.666Z,1013.25
2017-10-13T09:32:43.089Z,1013.37
2017-10-13T09:33:44.515Z,1013.34
2017-10-13T09:34:45.966Z,1013.40
2017-10-13T09:35:47.384Z,1013.36
2017-10-13T09:36:48.818Z,1013.33
2017-10-13T09:37:50.245Z,1013.37
2017-10-13T09:38:51.672Z,1013.39
2017-10-13T09:39:53.100Z,1013.34
2017-10-13T09:40:54.533Z,1013.38
2017-10-13T09:41:55.960Z,1013.39
2017-10-13T09:42:57.387Z,1013.43
2017-10-13T09:43:58.810Z,1013.40
2017-10-13T09:45:00.243Z,1013.43
2017-10-13T09:46:01.656Z,1013.41
2017-10-13T09:47:03.083Z,1013.45
2017-10-13T09:48:04.510Z,1013.41
2017-10-13T09:49:05.946Z,1013.39
2017-10-13T09:50:07.373Z,1013.41
2017-10-13T09:51:08.822Z,1013.42
2017-10-13T09:52:10.236Z,1013.42
2017-10-13T09:53:11.657Z,1013.40
2017-10-13T09:54:13.087Z,1013.41
2017-10-13T09:55:14.516Z,1013.37
2017-10-13T09:57:39.366Z,1013.39
2017-10-13T09:58:40.791Z,1013.40
2017-10-13T09:59:42.224Z,1013.42
2017-10-13T10:00:43.650Z,1013.44
2017-10-13T10:01:45.075Z,1013.46
2017-10-13T10:02:46.507Z,1013.47
2017-10-13T10:03:47.950Z,1013.50
2017-10-13T10:04:49.376Z,1013.51
2017-10-13T10:05:50.799Z,1013.42
2017-10-13T10:06:52.217Z,1013.54
2017-10-13T10:07:53.640Z,1013.52
2017-10-13T10:08:55.074Z,1013.52
2017-10-13T10:09:56.495Z,1013.47
2017-10-13T10:10:57.927Z,1013.53
2017-10-13T10:11:59.365Z,1013.53
2017-10-13T10:13:00.790Z,1013.51
2017-10-13T10:14:02.211Z,1013.55
2017-10-13T10:15:03.640Z,1013.56
2017-10-13T10:16:05.061Z,1013.62
2017-10-13T10:17:06.498Z,1013.62
2017-10-13T10:18:07.926Z,1013.62
2017-10-13T10:19:09.354Z,1013.70
2017-10-13T10:20:10.774Z,1013.67
2017-10-13T10:21:12.202Z,1013.67
2017-10-13T10:22:13.629Z,1013.68
2017-10-13T10:23:15.050Z,1013.63
2017-10-13T10:24:16.477Z,1013.65
2017-10-13T10:25:17.910Z,1013.68
2017-10-13T10:26:19.341Z,1013.71
2017-10-13T10:27:20.761Z,1013.67
2017-10-13T10:28:22.198Z,1013.73
2017-10-13T10:29:23.619Z,1013.72
2017-10-13T10:30:25.037Z,1013.71
2017-10-13T10:31:26.474Z,1013.71
2017-10-13T10:32:27.917Z,1013.71
2017-10-13T10:33:29.325Z,1013.74
2017-10-13T10:34:30.767Z,1013.76
2017-10-13T10:35:32.232Z,1013.73
2017-10-13T10:36:33.668Z,1013.73
2017-10-13T10:37:35.096Z,1013.79
2017-10-13T10:38:36.524Z,1013.79
2017-10-13T10:39:37.950Z,1013.80
2017-10-13T10:40:39.459Z,1013.81
2017-10-13T10:41:40.886Z,1013.81
2017-10-13T10:42:42.303Z,1013.86
2017-10-13T10:43:43.730Z,1013.84
2017-10-13T10:44:45.198Z,1013.91
2017-10-13T10:45:46.626Z,1013.91
2017-10-13T10:46:48.048Z,1013.91
2017-10-13T10:47:49.472Z,1013.83
2017-10-13T10:48:50.897Z,1013.83
2017-10-13T10:49:52.348Z,1013.88
2017-10-13T10:50:53.762Z,1013.89
2017-10-13T10:51:55.188Z,1013.93
2017-10-13T10:52:56.610Z,1013.88
2017-10-13T10:53:58.583Z,1013.83
2017-10-13T10:55:00.012Z,1013.81
2017-10-13T10:56:01.435Z,1013.84
2017-10-13T10:57:02.858Z,1013.85
2017-10-13T10:58:04.281Z,1013.81
2017-10-13T10:59:05.705Z,1013.83
2017-10-13T11:00:07.130Z,1013.77
2017-10-13T11:01:08.531Z,1013.75
2017-10-13T11:02:09.976Z,1013.79
2017-10-13T11:03:11.403Z,1013.75
2017-10-13T11:04:12.831Z,1013.72
2017-10-13T11:05:14.252Z,1013.68
2017-10-13T11:06:15.682Z,1013.75
2017-10-13T11:07:17.100Z,1013.82
2017-10-13T11:08:18.526Z,1013.81
2017-10-13T11:09:19.957Z,1013.81
2017-10-13T11:10:21.389Z,1013.84
2017-10-13T11:11:22.825Z,1013.89
2017-10-13T11:12:24.248Z,1013.83
2017-10-13T11:13:25.670Z,1013.84
2017-10-13T11:14:27.100Z,1013.89
2017-10-13T11:15:28.521Z,1013.93
2017-10-13T11:16:29.950Z,1013.88
2017-10-13T11:17:31.367Z,1013.87
2017-10-13T11:18:32.808Z,1013.96
2017-10-13T11:19:34.228Z,1013.94
2017-10-13T11:20:35.652Z,1013.94
2017-10-13T11:21:37.081Z,1013.89
2017-10-13T11:22:38.522Z,1013.90
2017-10-13T11:23:39.951Z,1013.86
2017-10-13T11:24:41.368Z,1013.89
2017-10-13T11:25:42.798Z,1013.87
2017-10-13T11:26:44.222Z,1013.86
2017-10-13T11:27:45.642Z,1013.87
2017-10-13T11:28:47.074Z,1013.87
2017-10-13T11:29:48.487Z,1013.85
2017-10-13T11:30:49.926Z,1013.85
2017-10-13T11:31:51.347Z,1013.80
2017-10-13T11:32:52.789Z,1013.82
2017-10-13T11:33:54.204Z,1013.78
2017-10-13T11:34:55.627Z,1013.77
2017-10-13T11:35:57.053Z,1013.74
2017-10-13T11:36:58.488Z,1013.75
2017-10-13T11:37:59.914Z,1013.76
2017-10-13T11:39:01.372Z,1013.71
2017-10-13T11:40:02.778Z,1013.70
2017-10-13T11:41:04.203Z,1013.70
2017-10-13T11:42:05.648Z,1013.67
2017-10-13T11:43:07.070Z,1013.70
2017-10-13T11:44:08.509Z,1013.65
2017-10-13T11:45:09.937Z,1013.65
2017-10-13T11:46:11.371Z,1013.67
2017-10-13T11:47:12.800Z,1013.66
2017-10-13T11:48:14.222Z,1013.69
2017-10-13T11:49:15.644Z,1013.70
2017-10-13T11:50:17.068Z,1013.68
2017-10-13T11:51:18.496Z,1013.66
2017-10-13T11:52:19.932Z,1013.70
2017-10-13T11:53:21.359Z,1013.71
2017-10-13T11:54:22.786Z,1013.72
2017-10-13T11:55:24.217Z,1013.66
2017-10-13T11:56:25.648Z,1013.66
2017-10-13T11:57:27.070Z,1013.69
2017-10-13T11:58:28.506Z,1013.65
2017-10-13T11:59:29.935Z,1013.70
2017-10-13T12:00:31.361Z,1013.69
2017-10-13T12:01:32.790Z,1013.71
2017-10-13T12:02:34.221Z,1013.67
2017-10-13T12:03:35.646Z,1013.63
2017-10-13T12:04:37.081Z,1013.64
2017-10-13T12:05:38.495Z,1013.64
2017-10-13T12:06:39.923Z,1013.64
2017-10-13T12:07:41.367Z,1013.71
2017-10-13T12:08:42.790Z,1013.65
2017-10-13T12:09:44.221Z,1013.66
2017-10-13T12:10:45.654Z,1013.73
2017-10-13T12:11:47.087Z,1013.83
2017-10-13T12:12:48.514Z,1013.79
2017-10-13T12:13:49.940Z,1013.93
2017-10-13T12:14:51.370Z,1013.87
2017-10-13T12:15:52.797Z,1013.90
2017-10-13T12:16:54.228Z,1013.92
2017-10-13T12:17:55.662Z,1013.87
2017-10-13T12:18:57.080Z,1013.84
2017-10-13T12:19:58.519Z,1013.86
2017-10-13T12:20:59.945Z,1013.84
2017-10-13T12:22:01.377Z,1013.87
2017-10-13T12:23:02.795Z,1013.85
2017-10-13T12:24:04.230Z,1013.86
2017-10-13T12:25:05.665Z,1013.98
2017-10-13T12:26:07.086Z,1013.89
2017-10-13T12:27:08.522Z,1013.94
2017-10-13T12:28:09.947Z,1014.02
2017-10-13T12:29:11.378Z,1014.02
2017-10-13T12:30:12.809Z,1014.39
2017-10-13T12:31:14.235Z,1014.81
2017-10-13T12:32:15.673Z,1014.97
2017-10-13T12:33:17.089Z,1014.89
2017-10-13T12:34:18.527Z,1015.07
2017-10-13T12:35:19.990Z,1014.90
2017-10-13T12:36:21.423Z,1014.91
2017-10-13T12:37:22.854Z,1014.79
2017-10-13T12:38:24.282Z,1014.80
2017-10-13T12:39:25.720Z,1014.64
2017-10-13T12:40:27.148Z,1014.76
2017-10-13T12:41:28.579Z,1014.60
2017-10-13T12:42:30.012Z,1014.51
2017-10-13T12:43:31.441Z,1014.52
2017-10-13T12:44:32.872Z,1014.48
2017-10-13T12:45:34.311Z,1014.43
2017-10-13T12:46:35.742Z,1014.45
2017-10-13T12:47:37.178Z,1014.38
2017-10-13T12:48:38.615Z,1014.40
2017-10-13T12:49:40.072Z,1014.41
2017-10-13T12:50:41.503Z,1014.41
2017-10-13T12:51:42.926Z,1014.31
2017-10-13T12:52:44.355Z,1014.28
2017-10-13T12:53:45.789Z,1014.24
2017-10-13T12:54:47.215Z,1014.20
2017-10-13T12:55:48.648Z,1014.09
2017-10-13T12:56:50.078Z,1014.04
2017-10-13T12:57:51.504Z,1013.93
2017-10-13T12:58:52.932Z,1013.98
2017-10-13T12:59:54.364Z,1014.22
2017-10-13T13:00:55.797Z,1013.97
2017-10-13T13:01:57.223Z,1014.01
2017-10-13T13:02:58.674Z,1014.24
2017-10-13T13:04:00.202Z,1014.05
2017-10-13T13:05:01.633Z,1014.26
2017-10-13T13:06:03.061Z,1014.13
2017-10-13T13:07:04.496Z,1014.09
2017-10-13T13:08:05.923Z,1014.15
2017-10-13T13:09:07.362Z,1014.32
2017-10-13T13:10:08.797Z,1014.52
2017-10-13T13:11:10.233Z,1014.92
2017-10-13T13:12:11.673Z,1015.17
2017-10-13T13:13:13.104Z,1015.29
2017-10-13T13:14:14.556Z,1014.91
2017-10-13T13:15:15.982Z,1014.86
2017-10-13T13:16:17.416Z,1015.27
2017-10-13T13:17:18.848Z,1015.31
2017-10-13T13:18:20.280Z,1015.36
2017-10-13T13:19:21.721Z,1015.42
2017-10-13T13:20:23.165Z,1015.44
2017-10-13T13:21:24.600Z,1015.48
2017-10-13T13:22:26.033Z,1015.49
2017-10-13T13:23:27.472Z,1015.43
2017-10-13T13:24:28.907Z,1015.39
2017-10-13T13:25:30.343Z,1015.47
2017-10-13T13:26:31.777Z,1015.50
2017-10-13T13:27:33.210Z,1015.53
2017-10-13T13:28:34.645Z,1015.53
2017-10-13T13:29:36.079Z,1015.49
2017-10-13T13:30:37.515Z,1015.54
2017-10-13T13:31:38.958Z,1015.45
2017-10-13T13:32:40.396Z,1015.49
2017-10-13T13:33:41.860Z,1015.52
2017-10-13T13:34:43.279Z,1015.45
2017-10-13T13:35:44.720Z,1015.48
2017-10-13T13:36:46.155Z,1015.46
2017-10-13T13:37:47.588Z,1015.46
2017-10-13T13:38:49.036Z,1015.47
2017-10-13T13:39:50.469Z,1015.06
2017-10-13T13:40:51.905Z,1015.23
2017-10-13T13:41:53.344Z,1015.39
2017-10-13T13:42:54.794Z,1015.44
2017-10-13T13:43:56.223Z,1015.45
2017-10-13T13:44:57.666Z,1015.37
2017-10-13T13:45:59.090Z,1015.49
2017-10-13T13:47:00.525Z,1015.50
2017-10-13T13:48:01.962Z,1015.47
2017-10-13T13:49:03.403Z,1015.49
2017-10-13T13:50:04.860Z,1015.11
2017-10-13T13:51:06.290Z,1015.08
2017-10-13T13:52:07.727Z,1015.04
2017-10-13T13:53:09.182Z,1015.05
2017-10-13T13:54:10.615Z,1014.99
2017-10-13T13:55:12.048Z,1014.97
2017-10-13T13:56:13.487Z,1014.95
2017-10-13T13:57:14.934Z,1014.93
2017-10-13T13:58:16.371Z,1015.01
2017-10-13T13:59:17.809Z,1014.92
2017-10-13T14:00:19.246Z,1014.91
2017-10-13T14:01:20.711Z,1014.90
2017-10-13T14:02:22.149Z,1014.87
2017-10-13T14:03:23.587Z,1014.95
2017-10-13T14:04:25.019Z,1014.90
2017-10-13T14:05:26.452Z,1014.92
2017-10-13T14:06:27.876Z,1014.88
2017-10-13T14:07:29.319Z,1014.92
2017-10-13T14:08:30.783Z,1014.83
2017-10-13T14:09:32.220Z,1014.83
2017-10-13T14:10:33.649Z,1014.84
2017-10-13T14:11:35.143Z,1014.81
2017-10-13T14:12:36.603Z,1014.82
2017-10-13T14:13:38.005Z,1014.78
2017-10-13T14:14:39.441Z,1014.70
2017-10-13T14:15:40.873Z,1014.72
2017-10-13T14:16:42.308Z,1014.74
2017-10-13T14:17:43.736Z,1014.68
2017-10-13T14:18:45.175Z,1014.67
2017-10-13T14:19:46.603Z,1014.64
2017-10-13T14:20:48.032Z,1014.64
2017-10-13T14:21:49.457Z,1014.66
2017-10-13T14:22:50.908Z,1014.60
2017-10-13T14:23:52.354Z,1014.62
2017-10-13T14:24:53.786Z,1014.63
2017-10-13T14:25:55.225Z,1014.64
2017-10-13T14:26:56.652Z,1014.62
2017-10-13T14:27:58.080Z,1014.60
2017-10-13T14:28:59.515Z,1014.63
2017-10-13T14:30:00.954Z,1014.62
2017-10-13T14:31:02.384Z,1014.61
2017-10-13T14:32:03.811Z,1014.59
2017-10-13T14:33:05.241Z,1014.61
2017-10-13T14:34:06.677Z,1014.58
2017-10-13T14:35:08.113Z,1014.50
2017-10-13T14:36:09.546Z,1014.49
2017-10-13T14:37:10.988Z,1014.48
2017-10-13T14:38:12.417Z,1014.47
2017-10-13T14:39:13.862Z,1014.45
2017-10-13T14:40:15.299Z,1014.46
2017-10-13T14:41:16.749Z,1014.40
2017-10-13T14:42:18.182Z,1014.40
2017-10-13T14:43:19.610Z,1014.47
2017-10-13T14:44:21.051Z,1014.39
2017-10-13T14:45:22.474Z,1014.40
2017-10-13T14:46:23.899Z,1014.44
2017-10-13T14:47:25.331Z,1014.39
2017-10-13T14:48:26.764Z,1014.38
2017-10-13T14:49:28.201Z,1014.44
2017-10-13T14:50:29.648Z,1014.40
2017-10-13T14:51:31.075Z,1014.36
2017-10-13T14:52:32.566Z,1014.40
2017-10-13T14:53:34.000Z,1014.39
2017-10-13T14:54:35.432Z,1014.38
2017-10-13T14:55:36.866Z,1014.29
2017-10-13T14:56:38.298Z,1014.39
2017-10-13T14:57:39.811Z,1014.41
2017-10-13T14:58:41.248Z,1014.39
2017-10-13T14:59:42.684Z,1014.35
2017-10-13T15:00:44.112Z,1014.34
2017-10-13T15:01:45.549Z,1014.29
2017-10-13T15:02:46.982Z,1014.30
2017-10-13T15:03:48.413Z,1014.25
2017-10-13T15:04:49.838Z,1014.25
2017-10-13T15:05:51.264Z,1014.24
2017-10-13T15:06:52.696Z,1014.24
2017-10-13T15:07:54.121Z,1014.24
2017-10-13T15:08:55.561Z,1014.24
2017-10-13T15:09:56.986Z,1014.28
2017-10-13T15:11:02.485Z,1014.27
2017-10-13T15:12:03.906Z,1014.25
2017-10-13T15:13:05.339Z,1014.30
2017-10-13T15:14:06.779Z,1014.27
2017-10-13T15:15:08.201Z,1014.24
2017-10-13T15:16:09.634Z,1014.25
2017-10-13T15:17:11.057Z,1014.25
2017-10-13T15:18:12.508Z,1014.27
2017-10-13T15:19:13.943Z,1014.21
2017-10-13T15:20:15.372Z,1014.25
2017-10-13T15:21:16.805Z,1014.24
2017-10-13T15:22:18.240Z,1014.15
2017-10-13T15:23:19.667Z,1014.17
2017-10-13T15:24:21.087Z,1014.17
2017-10-13T15:25:22.525Z,1014.19
2017-10-13T15:26:23.949Z,1014.19
2017-10-13T15:27:25.374Z,1014.13
2017-10-13T15:28:26.799Z,1014.12
2017-10-13T15:29:28.247Z,1014.14
2017-10-13T15:30:29.676Z,1014.13
2017-10-13T15:31:31.098Z,1014.13
2017-10-13T15:32:32.521Z,1014.09
2017-10-13T15:33:33.947Z,1014.10
2017-10-13T15:34:35.381Z,1014.10
2017-10-13T15:35:36.844Z,1014.06
2017-10-13T15:36:38.267Z,1014.06
2017-10-13T15:37:39.699Z,1014.03
2017-10-13T15:38:41.126Z,1014.02
2017-10-13T15:39:42.554Z,1014.11
2017-10-13T15:40:43.979Z,1014.06
2017-10-13T15:41:45.397Z,1014.10
2017-10-13T15:42:46.822Z,1014.05
2017-10-13T15:43:48.256Z,1014.10
2017-10-13T15:44:49.684Z,1014.12
2017-10-13T15:45:51.110Z,1014.10
2017-10-13T15:46:52.536Z,1014.12
2017-10-13T15:47:54.042Z,1014.13
2017-10-13T15:48:55.464Z,1014.11
2017-10-13T15:49:56.902Z,1014.12
2017-10-13T15:50:58.324Z,1014.07
2017-10-13T15:51:59.766Z,1014.11
2017-10-13T15:53:01.188Z,1014.11
2017-10-13T15:54:02.635Z,1014.10
2017-10-13T15:55:04.056Z,1014.12
2017-10-13T15:56:05.491Z,1014.11
2017-10-13T15:57:06.926Z,1014.08
2017-10-13T15:58:08.335Z,1014.09
2017-10-13T15:59:09.766Z,1014.02
2017-10-13T16:00:11.201Z,1014.02
2017-10-13T16:01:12.625Z,1013.98
2017-10-13T16:02:14.045Z,1013.95
2017-10-13T16:03:15.474Z,1013.89
2017-10-13T16:04:16.895Z,1013.91
2017-10-13T16:05:18.317Z,1013.90
2017-10-13T16:06:19.746Z,1013.96
2017-10-13T16:07:21.183Z,1013.94
2017-10-13T16:08:22.612Z,1013.93
2017-10-13T16:09:24.034Z,1013.95
2017-10-13T16:10:25.457Z,1013.89
2017-10-13T16:11:26.886Z,1013.92
2017-10-13T16:12:28.338Z,1013.92
2017-10-13T16:13:29.756Z,1013.91
2017-10-13T16:14:31.199Z,1013.87
2017-10-13T16:15:32.627Z,1013.90
2017-10-13T16:16:34.071Z,1013.82
2017-10-13T16:17:35.503Z,1013.87
2017-10-13T16:18:36.919Z,1013.84
2017-10-13T16:19:38.346Z,1013.82
2017-10-13T16:20:39.804Z,1013.84
2017-10-13T16:21:41.227Z,1013.80
2017-10-13T16:22:42.663Z,1013.75
2017-10-13T16:23:44.085Z,1013.75
2017-10-13T16:24:45.523Z,1013.75
2017-10-13T16:25:46.948Z,1013.74
2017-10-13T16:26:48.384Z,1013.70
2017-10-13T16:27:49.805Z,1013.70
2017-10-13T16:28:51.235Z,1013.69
2017-10-13T16:29:52.684Z,1013.68
2017-10-13T16:30:54.100Z,1013.62
2017-10-13T16:31:55.545Z,1013.67
2017-10-13T16:32:56.962Z,1013.71
2017-10-13T16:33:58.397Z,1013.67
2017-10-13T16:34:59.821Z,1013.72
2017-10-13T16:36:01.248Z,1013.73
2017-10-13T16:37:02.669Z,1013.67
2017-10-13T16:38:04.098Z,1013.69
2017-10-13T16:39:05.516Z,1013.69
2017-10-13T16:40:06.948Z,1013.69
2017-10-13T16:41:08.384Z,1013.67
2017-10-13T16:42:09.812Z,1013.66
2017-10-13T16:43:11.234Z,1013.68
2017-10-13T16:44:12.675Z,1013.69
2017-10-13T16:45:14.148Z,1013.68
2017-10-13T16:46:15.570Z,1013.67
2017-10-13T16:47:16.992Z,1013.67
2017-10-13T16:48:18.407Z,1013.68
2017-10-13T16:49:19.849Z,1013.69
2017-10-13T16:50:21.263Z,1013.76
2017-10-13T16:51:22.688Z,1013.70
2017-10-13T16:52:24.110Z,1013.72
2017-10-13T16:53:25.535Z,1013.67
2017-10-13T16:54:26.967Z,1013.67
2017-10-13T16:55:28.391Z,1013.68
2017-10-13T16:56:29.826Z,1013.71
2017-10-13T16:57:31.271Z,1013.65
2017-10-13T16:58:43.018Z,1013.68
2017-10-13T16:59:44.440Z,1013.68
2017-10-13T17:00:46.618Z,1013.68
2017-10-13T17:01:50.183Z,1013.75
2017-10-13T17:02:51.602Z,1013.73
2017-10-13T17:03:54.315Z,1013.75
2017-10-13T17:05:03.641Z,1013.77
2017-10-13T17:06:04.954Z,1013.76
2017-10-13T17:07:07.241Z,1013.77
2017-10-13T17:08:09.681Z,1013.79
2017-10-13T17:09:11.106Z,1013.81
2017-10-13T17:10:12.563Z,1013.81
2017-10-13T17:11:18.046Z,1013.84
2017-10-13T17:12:19.847Z,1013.88
2017-10-13T17:13:21.273Z,1013.83
2017-10-13T17:14:23.325Z,1013.89
2017-10-13T17:15:25.322Z,1013.85
2017-10-13T17:16:26.754Z,1013.85
2017-10-13T17:17:28.789Z,1013.88
2017-10-13T17:18:32.280Z,1013.89
2017-10-13T17:19:33.710Z,1013.83
2017-10-13T17:20:35.136Z,1013.83
2017-10-13T17:21:38.870Z,1013.85
2017-10-13T17:22:40.302Z,1013.80
2017-10-13T17:23:41.763Z,1013.83
2017-10-13T17:26:25.686Z,1013.84
2017-10-13T17:27:27.105Z,1013.83
2017-10-13T17:28:28.534Z,1013.78
2017-10-13T17:29:29.961Z,1013.80
2017-10-13T17:30:31.387Z,1013.80
2017-10-13T17:31:32.823Z,1013.82
2017-10-13T17:32:34.432Z,1013.83
2017-10-13T17:33:35.840Z,1013.85
2017-10-13T17:34:37.268Z,1013.82
2017-10-13T17:35:38.705Z,1013.83
2017-10-13T17:36:40.128Z,1013.85
2017-10-13T17:37:41.551Z,1013.88
2017-10-13T17:38:42.975Z,1013.87
2017-10-13T17:39:44.505Z,1013.89
2017-10-13T17:40:45.754Z,1013.81
2017-10-13T17:41:47.171Z,1013.87
2017-10-13T17:42:48.594Z,1013.87
2017-10-13T17:43:51.423Z,1013.87
2017-10-13T17:44:52.803Z,1013.86
2017-10-13T17:45:54.223Z,1013.84
2017-10-13T17:46:55.657Z,1013.87
2017-10-13T17:47:57.074Z,1013.88
2017-10-13T17:48:58.511Z,1013.90
2017-10-13T17:50:00.771Z,1013.91
2017-10-13T17:51:02.193Z,1013.87
2017-10-13T17:52:03.617Z,1013.85
2017-10-13T17:53:05.033Z,1013.81
2017-10-13T17:54:06.473Z,1013.86
2017-10-13T17:55:07.874Z,1013.88
2017-10-13T17:56:09.300Z,1013.90
2017-10-13T17:57:10.734Z,1013.91
2017-10-13T17:58:12.159Z,1013.87
2017-10-13T17:59:13.589Z,1013.85
2017-10-13T18:00:15.026Z,1013.87
2017-10-13T18:01:16.436Z,1013.84
2017-10-13T18:02:17.861Z,1013.83
2017-10-13T18:03:19.290Z,1013.84
2017-10-13T18:04:20.722Z,1013.82
2017-10-13T18:05:22.138Z,1013.89
2017-10-13T18:06:23.568Z,1013.91
2017-10-13T18:07:35.006Z,1013.87
2017-10-13T18:08:36.644Z,1013.88
2017-10-13T18:09:38.081Z,1013.96
2017-10-13T18:10:39.500Z,1013.89
2017-10-13T18:11:40.928Z,1013.91
2017-10-13T18:12:42.370Z,1013.89
2017-10-13T18:13:55.100Z,1013.94
2017-10-13T18:14:56.531Z,1013.97
2017-10-13T18:15:59.082Z,1013.91
2017-10-13T18:17:00.516Z,1013.96
2017-10-13T18:18:15.864Z,1013.95
2017-10-13T18:19:17.310Z,1013.87
2017-10-13T18:20:18.727Z,1013.88
2017-10-13T18:21:20.150Z,1013.83
2017-10-13T18:22:21.575Z,1013.83
2017-10-13T18:23:23.007Z,1013.83
2017-10-13T18:24:24.431Z,1013.82
2017-10-13T18:25:25.903Z,1013.86
2017-10-13T18:26:27.330Z,1013.86
2017-10-13T18:27:28.750Z,1013.78
2017-10-13T18:28:30.164Z,1013.85
2017-10-13T18:29:31.579Z,1013.80
2017-10-13T18:30:33.007Z,1013.83
2017-10-13T18:31:34.441Z,1013.74
2017-10-13T18:32:35.873Z,1013.78
2017-10-13T18:33:37.294Z,1013.80
2017-10-13T18:34:38.718Z,1013.81
2017-10-13T18:35:40.138Z,1013.74
2017-10-13T18:36:41.558Z,1013.76
2017-10-13T18:37:42.983Z,1013.76
2017-10-13T18:38:44.405Z,1013.78
2017-10-13T18:39:45.875Z,1013.77
2017-10-13T18:40:47.311Z,1013.80
2017-10-13T18:41:48.746Z,1013.79
2017-10-13T18:42:50.165Z,1013.79
2017-10-13T18:43:51.586Z,1013.76
2017-10-13T18:44:53.099Z,1013.78
2017-10-13T18:45:54.543Z,1013.76
2017-10-13T18:46:55.968Z,1013.76
2017-10-13T18:47:57.391Z,1013.79
2017-10-13T18:48:58.869Z,1013.82
2017-10-13T18:50:00.304Z,1013.82
2017-10-13T18:51:01.734Z,1013.78
2017-10-13T18:52:03.170Z,1013.80
2017-10-13T18:53:04.595Z,1013.82
2017-10-13T18:54:06.005Z,1013.81
2017-10-13T18:55:07.429Z,1013.78
2017-10-13T18:56:08.845Z,1013.81
2017-10-13T18:57:10.261Z,1013.74
2017-10-13T18:58:11.707Z,1013.77
2017-10-13T18:59:13.136Z,1013.78
2017-10-13T19:00:14.587Z,1013.77
2017-10-13T19:01:16.011Z,1013.78
2017-10-13T19:02:17.452Z,1013.79
2017-10-13T19:03:18.860Z,1013.79
2017-10-13T19:04:20.284Z,1013.82
2017-10-13T19:05:21.705Z,1013.81
2017-10-13T19:06:23.125Z,1013.83
2017-10-13T19:07:24.555Z,1013.83
2017-10-13T19:08:26.007Z,1013.79
2017-10-13T19:09:27.423Z,1013.80
2017-10-13T19:10:28.847Z,1013.80
2017-10-13T19:11:33.020Z,1013.84
2017-10-13T19:12:34.849Z,1013.78
2017-10-13T19:13:36.903Z,1013.77
2017-10-13T19:14:42.635Z,1013.83
2017-10-13T19:15:44.103Z,1013.81
2017-10-13T19:16:45.895Z,1013.82
2017-10-13T19:17:47.314Z,1013.89
2017-10-13T19:18:48.740Z,1013.88
2017-10-13T19:19:50.542Z,1013.92
2017-10-13T19:20:52.247Z,1013.84
2017-10-13T19:21:53.487Z,1013.88
2017-10-13T19:22:54.904Z,1013.87
2017-10-13T19:23:56.331Z,1013.87
2017-10-13T19:24:57.751Z,1013.87
2017-10-13T19:25:59.172Z,1013.80
2017-10-13T19:27:00.600Z,1013.85
2017-10-13T19:28:02.042Z,1013.83
2017-10-13T19:29:03.631Z,1013.84
2017-10-13T19:30:05.177Z,1013.83
2017-10-13T19:31:06.934Z,1013.83
2017-10-13T19:32:08.334Z,1013.87
2017-10-13T19:33:09.796Z,1013.85
2017-10-13T19:34:11.212Z,1013.88
2017-10-13T19:35:12.639Z,1013.87
2017-10-13T19:36:14.059Z,1013.83
2017-10-13T19:37:15.478Z,1013.85
2017-10-13T19:38:16.900Z,1013.90
2017-10-13T19:39:18.348Z,1013.88
2017-10-13T19:40:19.765Z,1013.87
2017-10-13T19:41:21.184Z,1013.84
2017-10-13T19:42:22.605Z,1013.85
2017-10-13T19:43:24.022Z,1013.84
2017-10-13T19:44:25.463Z,1013.85
2017-10-13T19:45:26.903Z,1013.85
2017-10-13T19:46:28.329Z,1013.83
2017-10-13T19:47:29.750Z,1013.86
2017-10-13T19:48:31.182Z,1013.84
2017-10-13T19:49:32.612Z,1013.82
2017-10-13T19:50:34.130Z,1013.84
2017-10-13T19:51:35.553Z,1013.83
2017-10-13T19:52:36.977Z,1013.85
2017-10-13T19:53:38.388Z,1013.81
2017-10-13T19:54:39.818Z,1013.83
2017-10-13T19:55:41.242Z,1013.80
2017-10-13T19:56:42.675Z,1013.84
2017-10-13T19:57:44.113Z,1013.83
2017-10-13T19:58:45.533Z,1013.86
2017-10-13T19:59:46.957Z,1013.89
2017-10-13T20:00:48.407Z,1013.92
2017-10-13T20:01:49.838Z,1013.95
2017-10-13T20:02:51.255Z,1013.94
2017-10-13T20:03:59.713Z,1013.97
2017-10-13T20:05:01.010Z,1013.97
2017-10-13T20:06:03.243Z,1013.98
2017-10-13T20:07:05.219Z,1013.96
2017-10-13T20:08:07.633Z,1013.96
2017-10-13T20:09:09.893Z,1013.99
2017-10-13T20:10:12.082Z,1013.96
2017-10-13T20:11:13.508Z,1014.00
2017-10-13T20:12:15.724Z,1014.01
2017-10-13T20:13:17.781Z,1014.00
2017-10-13T20:14:20.213Z,1014.05
2017-10-13T20:15:22.188Z,1014.02
2017-10-13T20:16:24.166Z,1014.03
2017-10-13T20:17:26.486Z,1013.96
2017-10-13T20:18:28.011Z,1013.94